Time;durP1;ratioP1;P1;durP2;ratioP2;P2;SDS_P1;SDS_P2;PMS_P1;PMS_P2;Temp;Humidity;BMP_temperature;BMP_pressure;BME280_temperature;BME280_humidity;BME280_pressure;Samples;Min_cycle;Max_cycle;Signal;HPM_P1;HPM_P2
2022/03/18 00:00:40;;;;;;;22.65;6.18;;;;;;;;;;4979089;28;20540;-68
2022/03/18 00:03:07;;;;;;;22.75;6.82;;;;;;;;;;4984006;28;20108;-68
2022/03/18 00:05:36;;;;;;;16.27;5.65;;;;;;;;;;4982759;28;20050;-68
2022/03/18 00:08:03;;;;;;;19.80;5.65;;;;;;;;;;4985237;28;20054;-68
2022/03/18 00:10:33;;;;;;;18.83;6.40;;;;;;;;;;4983925;28;20065;-68
2022/03/18 00:13:00;;;;;;;21.50;6.22;;;;;;;;;;4980876;28;20400;-68
2022/03/18 00:15:27;;;;;;;21.95;5.78;;;;;;;;;;4982768;28;20064;-68
2022/03/18 00:17:55;;;;;;;15.48;5.68;;;;;;;;;;4976600;28;20356;-68
2022/03/18 00:20:23;;;;;;;19.63;6.05;;;;;;;;;;4992028;28;20456;-68
2022/03/18 00:22:50;;;;;;;23.05;5.88;;;;;;;;;;4986237;28;20057;-68
2022/03/18 00:25:18;;;;;;;19.77;6.28;;;;;;;;;;4983022;28;20752;-68
2022/03/18 00:27:47;;;;;;;22.00;5.88;;;;;;;;;;4981230;28;20054;-68
2022/03/18 00:30:16;;;;;;;16.83;5.53;;;;;;;;;;4976772;28;20046;-68
2022/03/18 00:32:44;;;;;;;22.95;6.53;;;;;;;;;;4980694;28;20050;-68
2022/03/18 00:35:11;;;;;;;20.30;6.70;;;;;;;;;;4984291;28;20057;-68
2022/03/18 00:37:38;;;;;;;21.48;6.90;;;;;;;;;;4979730;28;20694;-68
2022/03/18 00:40:06;;;;;;;23.25;6.88;;;;;;;;;;4976148;28;20062;-68
2022/03/18 00:42:34;;;;;;;22.88;6.93;;;;;;;;;;4976652;28;20046;-68
2022/03/18 00:45:04;;;;;;;18.02;6.43;;;;;;;;;;4985436;28;20113;-68
2022/03/18 00:53:01;;;;;;;22.67;6.82;;;;;;;;;;4980105;28;20069;-68
2022/03/18 00:55:28;;;;;;;21.05;6.50;;;;;;;;;;5000144;28;20117;-68
2022/03/18 00:57:56;;;;;;;21.20;7.05;;;;;;;;;;4984272;28;20104;-68
2022/03/18 01:00:25;;;;;;;24.58;6.43;;;;;;;;;;4986773;28;20073;-68
2022/03/18 01:02:52;;;;;;;19.33;6.28;;;;;;;;;;4982462;28;20050;-68
2022/03/18 01:05:19;;;;;;;21.88;6.22;;;;;;;;;;4982848;28;20460;-68
2022/03/18 01:07:46;;;;;;;15.93;6.05;;;;;;;;;;4979762;28;20051;-68
2022/03/18 01:10:13;;;;;;;22.83;6.53;;;;;;;;;;4992684;28;20056;-68
2022/03/18 01:12:41;;;;;;;19.17;6.00;;;;;;;;;;4984571;28;20060;-68
2022/03/18 01:15:08;;;;;;;20.05;5.57;;;;;;;;;;4981039;28;20050;-68
2022/03/18 01:17:37;;;;;;;16.85;5.65;;;;;;;;;;4981362;28;20057;-67
2022/03/18 01:20:04;;;;;;;20.88;5.55;;;;;;;;;;4984587;28;20057;-67
2022/03/18 01:22:32;;;;;;;17.90;5.45;;;;;;;;;;4986861;28;20810;-67
2022/03/18 01:24:59;;;;;;;19.38;6.40;;;;;;;;;;4986749;28;20045;-67
2022/03/18 01:27:26;;;;;;;17.42;5.97;;;;;;;;;;4984773;28;20752;-67
2022/03/18 01:29:53;;;;;;;23.83;6.30;;;;;;;;;;4979790;28;20085;-67
2022/03/18 01:32:20;;;;;;;20.15;5.72;;;;;;;;;;4993621;28;20586;-68
2022/03/18 01:34:49;;;;;;;26.58;6.05;;;;;;;;;;4984272;28;20536;-68
2022/03/18 01:37:16;;;;;;;20.15;5.95;;;;;;;;;;4982583;28;20117;-68
2022/03/18 01:39:43;;;;;;;13.98;5.05;;;;;;;;;;4983384;28;20113;-68
2022/03/18 01:42:11;;;;;;;16.40;5.60;;;;;;;;;;4976839;28;20069;-68
2022/03/18 01:44:42;;;;;;;19.23;5.25;;;;;;;;;;5007056;28;20104;-68
2022/03/18 01:47:09;;;;;;;16.48;4.55;;;;;;;;;;4979625;28;20141;-68
2022/03/18 01:49:36;;;;;;;15.73;4.57;;;;;;;;;;4982475;28;20468;-68
2022/03/18 01:52:06;;;;;;;13.85;5.18;;;;;;;;;;4991409;28;20093;-68
2022/03/18 01:54:47;;;;;;;14.35;5.45;;;;;;;;;;4983996;28;20053;-68
2022/03/18 01:57:16;;;;;;;15.07;4.88;;;;;;;;;;4984229;28;20141;-68
2022/03/18 01:59:44;;;;;;;13.40;4.63;;;;;;;;;;4983735;28;20097;-68
2022/03/18 02:02:11;;;;;;;18.27;5.43;;;;;;;;;;4982926;28;20298;-68
2022/03/18 02:04:38;;;;;;;11.82;4.68;;;;;;;;;;4978196;28;20046;-68
2022/03/18 02:07:07;;;;;;;12.27;4.30;;;;;;;;;;4981084;28;20058;-68
2022/03/18 02:09:34;;;;;;;16.85;4.90;;;;;;;;;;4979153;28;20523;-68
2022/03/18 02:12:02;;;;;;;18.98;4.60;;;;;;;;;;4981989;28;20516;-68
2022/03/18 02:14:33;;;;;;;12.15;4.47;;;;;;;;;;4982815;28;20057;-68
2022/03/18 02:17:01;;;;;;;18.65;5.18;;;;;;;;;;4978385;28;20058;-68
2022/03/18 02:19:28;;;;;;;15.25;4.53;;;;;;;;;;4982204;28;20061;-68
2022/03/18 02:21:56;;;;;;;17.85;4.88;;;;;;;;;;4978605;28;20065;-68
2022/03/18 02:24:25;;;;;;;13.88;4.47;;;;;;;;;;4982902;28;20069;-68
2022/03/18 02:26:53;;;;;;;13.20;4.50;;;;;;;;;;4983074;28;20104;-68
2022/03/18 02:29:20;;;;;;;22.67;5.80;;;;;;;;;;4983156;28;20060;-68
2022/03/18 02:31:48;;;;;;;19.65;4.72;;;;;;;;;;4978840;28;20133;-68
2022/03/18 02:34:15;;;;;;;16.10;5.15;;;;;;;;;;4984043;28;20058;-68
2022/03/18 02:36:42;;;;;;;14.90;4.95;;;;;;;;;;4981257;28;20739;-68
2022/03/18 02:39:09;;;;;;;14.23;4.53;;;;;;;;;;4989923;28;20057;-68
2022/03/18 02:41:38;;;;;;;18.52;5.18;;;;;;;;;;4981431;28;20058;-68
2022/03/18 02:44:05;;;;;;;21.77;5.25;;;;;;;;;;4991385;28;20061;-68
2022/03/18 02:46:33;;;;;;;14.90;4.65;;;;;;;;;;4981432;28;20065;-68
2022/03/18 02:49:01;;;;;;;18.05;5.30;;;;;;;;;;4982987;28;20092;-68
2022/03/18 02:51:28;;;;;;;14.95;5.18;;;;;;;;;;4981112;28;20050;-68
2022/03/18 02:53:56;;;;;;;14.30;5.63;;;;;;;;;;4982705;28;20062;-68
2022/03/18 02:56:24;;;;;;;14.85;4.95;;;;;;;;;;4983399;28;20123;-68
2022/03/18 02:58:53;;;;;;;22.40;5.30;;;;;;;;;;4981892;28;20050;-68
2022/03/18 03:01:20;;;;;;;17.85;5.43;;;;;;;;;;4981845;28;20492;-68
2022/03/18 03:03:47;;;;;;;18.13;5.70;;;;;;;;;;4976705;28;20050;-68
2022/03/18 03:08:59;;;;;;;15.95;5.38;;;;;;;;;;4978898;28;20056;-68
2022/03/18 03:11:26;;;;;;;17.77;5.75;;;;;;;;;;4978088;28;20104;-68
2022/03/18 03:13:55;;;;;;;19.05;5.75;;;;;;;;;;4978470;28;20045;-68
2022/03/18 03:16:22;;;;;;;19.65;6.05;;;;;;;;;;4983041;28;20054;-68
2022/03/18 03:18:50;;;;;;;17.70;6.13;;;;;;;;;;4982659;28;20054;-68
2022/03/18 03:21:17;;;;;;;19.45;5.70;;;;;;;;;;4984003;28;20050;-68
2022/03/18 03:23:44;;;;;;;18.02;6.40;;;;;;;;;;4980748;28;20046;-68
2022/03/18 03:26:12;;;;;;;16.85;5.85;;;;;;;;;;4978158;28;20069;-68
2022/03/18 03:28:39;;;;;;;17.90;6.30;;;;;;;;;;4978980;28;20057;-68
2022/03/18 03:31:08;;;;;;;19.00;5.88;;;;;;;;;;4978431;28;20117;-68
2022/03/18 03:33:35;;;;;;;12.48;5.60;;;;;;;;;;4979618;28;20105;-68
2022/03/18 03:36:02;;;;;;;20.20;6.35;;;;;;;;;;4977603;28;20058;-68
2022/03/18 03:38:29;;;;;;;16.90;6.35;;;;;;;;;;4978562;28;20077;-68
2022/03/18 03:40:57;;;;;;;17.27;6.82;;;;;;;;;;4978792;28;20125;-68
2022/03/18 03:43:24;;;;;;;23.02;7.18;;;;;;;;;;4983276;28;20540;-68
2022/03/18 03:45:51;;;;;;;22.50;6.63;;;;;;;;;;4977050;28;20511;-68
2022/03/18 03:48:20;;;;;;;13.45;6.47;;;;;;;;;;4980184;28;20405;-68
2022/03/18 03:50:47;;;;;;;18.60;6.90;;;;;;;;;;4977416;28;20117;-68
2022/03/18 03:53:14;;;;;;;13.38;6.15;;;;;;;;;;4980019;28;20147;-68
2022/03/18 03:55:42;;;;;;;19.92;7.20;;;;;;;;;;4979704;28;20060;-68
2022/03/18 03:58:09;;;;;;;13.93;7.03;;;;;;;;;;4979170;28;20378;-68
2022/03/18 04:00:37;;;;;;;18.20;6.80;;;;;;;;;;4981828;28;20050;-68
2022/03/18 04:03:04;;;;;;;20.83;7.78;;;;;;;;;;4981523;28;20692;-68
2022/03/18 04:05:33;;;;;;;18.27;7.40;;;;;;;;;;4983771;28;20160;-68
2022/03/18 04:08:01;;;;;;;15.52;6.65;;;;;;;;;;4984247;28;20060;-68
2022/03/18 04:10:28;;;;;;;14.63;6.60;;;;;;;;;;4982022;28;20100;-68
2022/03/18 04:12:56;;;;;;;19.33;7.70;;;;;;;;;;4980940;28;20061;-68
2022/03/18 04:15:23;;;;;;;18.08;6.88;;;;;;;;;;4978134;28;20050;-68
2022/03/18 04:17:51;;;;;;;17.65;7.05;;;;;;;;;;4976753;28;20057;-68
2022/03/18 04:20:19;;;;;;;17.35;7.30;;;;;;;;;;4986830;28;20096;-68
2022/03/18 04:22:48;;;;;;;15.85;7.55;;;;;;;;;;4986953;28;20064;-68
2022/03/18 04:25:15;;;;;;;21.67;8.13;;;;;;;;;;4983172;28;20111;-68
2022/03/18 04:27:42;;;;;;;15.98;7.07;;;;;;;;;;4981219;28;20075;-68
2022/03/18 04:30:11;;;;;;;17.50;7.60;;;;;;;;;;4984634;28;20056;-68
2022/03/18 04:32:38;;;;;;;18.27;8.02;;;;;;;;;;4988102;28;20042;-68
2022/03/18 04:35:06;;;;;;;21.95;7.90;;;;;;;;;;4987433;28;20473;-68
2022/03/18 04:37:33;;;;;;;18.27;8.43;;;;;;;;;;4987283;28;20058;-68
2022/03/18 04:40:02;;;;;;;16.90;8.27;;;;;;;;;;4985759;28;20058;-68
2022/03/18 04:42:29;;;;;;;25.42;9.40;;;;;;;;;;4982089;28;20505;-68
2022/03/18 04:44:56;;;;;;;28.05;9.50;;;;;;;;;;4991210;28;20526;-68
2022/03/18 04:47:23;;;;;;;21.92;9.18;;;;;;;;;;4982603;28;20053;-68
2022/03/18 04:49:50;;;;;;;21.73;9.82;;;;;;;;;;4986235;28;20058;-68
2022/03/18 04:52:18;;;;;;;18.73;8.85;;;;;;;;;;4981350;28;20412;-68
2022/03/18 04:54:45;;;;;;;22.08;9.95;;;;;;;;;;4982586;28;20121;-68
2022/03/18 04:57:18;;;;;;;22.60;9.50;;;;;;;;;;4980578;28;20058;-68
2022/03/18 04:59:46;;;;;;;27.80;10.57;;;;;;;;;;4982470;28;20700;-68
2022/03/18 05:02:14;;;;;;;21.63;9.82;;;;;;;;;;4982351;28;20514;-68
2022/03/18 05:04:42;;;;;;;24.42;10.27;;;;;;;;;;4983597;28;20081;-68
2022/03/18 05:07:11;;;;;;;23.60;10.15;;;;;;;;;;4988186;28;20050;-68
2022/03/18 05:09:39;;;;;;;31.38;11.35;;;;;;;;;;4985712;28;20046;-68
2022/03/18 05:12:08;;;;;;;24.38;12.13;;;;;;;;;;4982001;28;20137;-68
2022/03/18 05:14:37;;;;;;;26.20;11.82;;;;;;;;;;4986358;28;20049;-68
2022/03/18 05:17:04;;;;;;;23.08;10.63;;;;;;;;;;4985263;28;20676;-68
2022/03/18 05:19:31;;;;;;;25.88;10.57;;;;;;;;;;4979772;28;20054;-68
2022/03/18 05:21:58;;;;;;;24.02;10.38;;;;;;;;;;4982698;28;20058;-68
2022/03/18 05:24:26;;;;;;;22.90;11.63;;;;;;;;;;4982768;28;20057;-68
2022/03/18 05:26:54;;;;;;;28.75;11.15;;;;;;;;;;4984273;28;20069;-68
2022/03/18 05:29:21;;;;;;;21.13;10.18;;;;;;;;;;4983499;28;20441;-68
2022/03/18 05:31:50;;;;;;;23.05;10.23;;;;;;;;;;4982008;28;20054;-68
2022/03/18 05:34:17;;;;;;;22.33;10.95;;;;;;;;;;4985936;28;20769;-68
2022/03/18 05:36:45;;;;;;;20.13;10.30;;;;;;;;;;4981492;28;20042;-68
2022/03/18 05:39:12;;;;;;;27.42;10.07;;;;;;;;;;4979150;28;20043;-68
2022/03/18 05:41:39;;;;;;;23.20;11.55;;;;;;;;;;4978374;28;20061;-68
2022/03/18 05:44:06;;;;;;;23.80;10.57;;;;;;;;;;4976963;28;20108;-68
2022/03/18 05:46:34;;;;;;;27.48;11.88;;;;;;;;;;4977331;28;20046;-68
2022/03/18 05:49:03;;;;;;;22.02;10.75;;;;;;;;;;4975572;28;20137;-68
2022/03/18 05:51:31;;;;;;;34.28;12.80;;;;;;;;;;4981360;28;20082;-68
2022/03/18 05:53:58;;;;;;;26.48;10.50;;;;;;;;;;4973950;28;20120;-68
2022/03/18 05:59:11;;;;;;;27.77;11.80;;;;;;;;;;4974438;28;20171;-68
2022/03/18 06:01:38;;;;;;;25.55;10.40;;;;;;;;;;4974929;28;20089;-68
2022/03/18 06:04:10;;;;;;;23.40;11.30;;;;;;;;;;4976045;28;20053;-68
2022/03/18 06:06:38;;;;;;;29.55;10.90;;;;;;;;;;4979737;28;20060;-68
2022/03/18 06:11:51;;;;;;;32.20;11.18;;;;;;;;;;4979784;28;20105;-68
2022/03/18 06:14:19;;;;;;;27.25;11.95;;;;;;;;;;4975723;28;20201;-68
2022/03/18 06:16:47;;;;;;;45.70;13.20;;;;;;;;;;4978997;28;20046;-68
2022/03/18 06:19:16;;;;;;;27.60;10.80;;;;;;;;;;4980056;28;20089;-67
2022/03/18 06:21:44;;;;;;;28.60;10.98;;;;;;;;;;4978582;28;20123;-67
2022/03/18 06:24:11;;;;;;;27.55;11.07;;;;;;;;;;4980361;28;20084;-67
2022/03/18 06:26:38;;;;;;;22.35;11.15;;;;;;;;;;4980980;28;20050;-67
2022/03/18 06:29:06;;;;;;;30.73;11.82;;;;;;;;;;4982906;28;20522;-67
2022/03/18 06:31:33;;;;;;;23.45;11.38;;;;;;;;;;4986653;28;20073;-67
2022/03/18 06:34:01;;;;;;;25.17;11.15;;;;;;;;;;4986479;28;20068;-67
2022/03/18 06:36:29;;;;;;;25.92;11.40;;;;;;;;;;4985981;28;20053;-68
2022/03/18 06:38:57;;;;;;;27.20;11.48;;;;;;;;;;4982789;28;20057;-68
2022/03/18 06:41:25;;;;;;;31.02;11.70;;;;;;;;;;4980658;28;20053;-68
2022/03/18 06:43:52;;;;;;;27.38;11.77;;;;;;;;;;4982934;28;20052;-68
2022/03/18 06:46:19;;;;;;;26.48;11.43;;;;;;;;;;4979346;28;20077;-68
2022/03/18 06:48:46;;;;;;;29.02;11.77;;;;;;;;;;4979829;28;20057;-68
2022/03/18 06:51:14;;;;;;;34.10;11.88;;;;;;;;;;4980766;28;20065;-68
2022/03/18 06:53:43;;;;;;;29.90;11.98;;;;;;;;;;4977764;28;20100;-68
2022/03/18 06:56:12;;;;;;;27.23;11.60;;;;;;;;;;4976051;28;20053;-68
2022/03/18 06:58:39;;;;;;;30.88;12.10;;;;;;;;;;4988856;28;20109;-68
2022/03/18 07:01:07;;;;;;;27.85;11.95;;;;;;;;;;4978358;28;20085;-68
2022/03/18 07:03:34;;;;;;;33.60;11.23;;;;;;;;;;4980280;28;20072;-68
2022/03/18 07:06:01;;;;;;;27.42;12.13;;;;;;;;;;4977341;28;20115;-68
2022/03/18 07:08:28;;;;;;;35.35;11.63;;;;;;;;;;4981307;28;20061;-68
2022/03/18 07:10:57;;;;;;;27.95;12.30;;;;;;;;;;4986051;28;20077;-68
2022/03/18 07:13:25;;;;;;;26.92;12.00;;;;;;;;;;4979322;28;20450;-68
2022/03/18 07:15:52;;;;;;;29.17;12.40;;;;;;;;;;4977300;28;20112;-68
2022/03/18 07:18:18;;;;;;;37.67;12.88;;;;;;;;;;4981774;28;20054;-68
2022/03/18 07:20:46;;;;;;;30.05;11.80;;;;;;;;;;4983337;28;20218;-68
2022/03/18 07:23:13;;;;;;;29.02;11.35;;;;;;;;;;4986967;28;20049;-68
2022/03/18 07:25:43;;;;;;;34.10;12.23;;;;;;;;;;4987648;28;20493;-68
2022/03/18 07:28:12;;;;;;;37.75;12.45;;;;;;;;;;4988057;28;20050;-68
2022/03/18 07:30:40;;;;;;;31.42;11.93;;;;;;;;;;4985564;28;20923;-68
2022/03/18 07:33:07;;;;;;;39.55;12.60;;;;;;;;;;4989372;28;20493;-68
2022/03/18 07:35:35;;;;;;;31.08;12.65;;;;;;;;;;4985295;28;20107;-68
2022/03/18 07:38:05;;;;;;;34.03;13.15;;;;;;;;;;4986969;28;20168;-67
2022/03/18 07:40:32;;;;;;;34.45;12.73;;;;;;;;;;4987003;28;20412;-68
2022/03/18 07:43:00;;;;;;;34.80;12.05;;;;;;;;;;4987070;28;20128;-68
2022/03/18 07:45:29;;;;;;;45.38;12.23;;;;;;;;;;4987758;28;20451;-68
2022/03/18 07:47:57;;;;;;;36.60;11.48;;;;;;;;;;4986109;28;20064;-68
2022/03/18 07:50:25;;;;;;;38.58;10.52;;;;;;;;;;4988345;28;20053;-68
2022/03/18 07:52:53;;;;;;;27.60;9.60;;;;;;;;;;4989287;28;20089;-68
2022/03/18 07:55:21;;;;;;;38.60;9.18;;;;;;;;;;4988399;28;20054;-68
2022/03/18 07:57:48;;;;;;;36.42;9.38;;;;;;;;;;4989814;28;20045;-68
2022/03/18 08:00:16;;;;;;;34.78;9.15;;;;;;;;;;4993195;28;20401;-68
2022/03/18 08:02:45;;;;;;;35.20;7.68;;;;;;;;;;5006310;28;20045;-68
2022/03/18 08:05:13;;;;;;;30.23;8.13;;;;;;;;;;4989640;28;20116;-68
2022/03/18 08:07:40;;;;;;;34.67;8.95;;;;;;;;;;4992593;28;20041;-68
2022/03/18 08:10:09;;;;;;;34.72;9.02;;;;;;;;;;4991409;28;20050;-68
2022/03/18 08:12:36;;;;;;;33.67;7.35;;;;;;;;;;4988931;28;20054;-68
2022/03/18 08:15:05;;;;;;;35.67;7.55;;;;;;;;;;4981909;28;20494;-68
2022/03/18 08:17:32;;;;;;;37.38;7.78;;;;;;;;;;4985142;28;20049;-68
2022/03/18 08:20:01;;;;;;;35.15;7.00;;;;;;;;;;4986738;28;20058;-68
2022/03/18 08:22:28;;;;;;;33.40;7.88;;;;;;;;;;4989027;28;20045;-68
2022/03/18 08:24:55;;;;;;;29.35;7.07;;;;;;;;;;4989097;28;20089;-68
2022/03/18 08:27:23;;;;;;;30.42;6.43;;;;;;;;;;4992375;28;20053;-68
2022/03/18 08:29:50;;;;;;;31.30;6.05;;;;;;;;;;4990942;28;20049;-68
2022/03/18 08:32:18;;;;;;;30.85;7.18;;;;;;;;;;4985589;28;20054;-68
2022/03/18 08:34:45;;;;;;;32.92;5.65;;;;;;;;;;4990366;28;20058;-68
2022/03/18 08:37:14;;;;;;;26.42;5.53;;;;;;;;;;4993468;28;20105;-68
2022/03/18 08:39:41;;;;;;;31.00;6.72;;;;;;;;;;4984507;28;20053;-68
2022/03/18 08:42:08;;;;;;;27.58;5.10;;;;;;;;;;4987793;28;20085;-69
2022/03/18 08:44:36;;;;;;;25.90;4.97;;;;;;;;;;4983982;28;20049;-68
2022/03/18 08:47:03;;;;;;;26.63;5.18;;;;;;;;;;4989729;28;20527;-69
2022/03/18 08:49:30;;;;;;;26.45;5.00;;;;;;;;;;4988692;28;20057;-68
2022/03/18 08:51:58;;;;;;;33.63;5.88;;;;;;;;;;4987780;28;20065;-68
2022/03/18 08:54:26;;;;;;;24.83;4.82;;;;;;;;;;4991160;28;20083;-68
2022/03/18 08:56:54;;;;;;;24.48;4.40;;;;;;;;;;4987658;28;20736;-68
2022/03/18 08:59:23;;;;;;;37.67;5.97;;;;;;;;;;4988843;28;20046;-68
2022/03/18 09:01:51;;;;;;;25.45;4.90;;;;;;;;;;4987892;28;20058;-68
2022/03/18 09:04:18;;;;;;;24.02;4.93;;;;;;;;;;4988539;28;20104;-68
2022/03/18 09:06:46;;;;;;;23.05;5.15;;;;;;;;;;4983991;28;20047;-68
2022/03/18 09:09:13;;;;;;;23.77;4.18;;;;;;;;;;4987818;28;20064;-68
2022/03/18 09:11:43;;;;;;;24.58;4.45;;;;;;;;;;4991729;28;20049;-68
2022/03/18 09:14:12;;;;;;;29.83;4.85;;;;;;;;;;4988376;28;20160;-68
2022/03/18 09:16:39;;;;;;;20.92;4.25;;;;;;;;;;4992244;28;20124;-68
2022/03/18 09:19:06;;;;;;;25.65;4.88;;;;;;;;;;4991866;28;20104;-68
2022/03/18 09:21:34;;;;;;;30.38;5.30;;;;;;;;;;4993576;28;20057;-68
2022/03/18 09:24:01;;;;;;;23.92;5.28;;;;;;;;;;4988314;28;20104;-68
2022/03/18 09:26:29;;;;;;;28.08;5.05;;;;;;;;;;4990940;28;20090;-68
2022/03/18 09:28:57;;;;;;;26.88;4.70;;;;;;;;;;4991356;28;20076;-68
2022/03/18 09:31:24;;;;;;;26.73;4.93;;;;;;;;;;4992402;28;20062;-68
2022/03/18 09:33:52;;;;;;;27.90;4.45;;;;;;;;;;4991333;28;20140;-68
2022/03/18 09:36:19;;;;;;;19.48;4.57;;;;;;;;;;4991371;28;20125;-68
2022/03/18 09:38:47;;;;;;;24.88;4.97;;;;;;;;;;4991251;28;20641;-68
2022/03/18 09:41:14;;;;;;;32.28;5.45;;;;;;;;;;4989796;28;20813;-68
2022/03/18 09:43:42;;;;;;;29.80;5.55;;;;;;;;;;4991167;28;20053;-69
2022/03/18 09:46:11;;;;;;;29.10;5.15;;;;;;;;;;4993273;28;20057;-69
2022/03/18 09:48:38;;;;;;;24.85;4.70;;;;;;;;;;4993636;28;20050;-68
2022/03/18 09:51:06;;;;;;;24.77;5.38;;;;;;;;;;4993803;28;20066;-68
2022/03/18 09:53:34;;;;;;;26.60;4.72;;;;;;;;;;4993709;28;20060;-68
2022/03/18 09:56:02;;;;;;;22.88;4.88;;;;;;;;;;4992366;28;20054;-68
2022/03/18 09:58:29;;;;;;;25.40;4.82;;;;;;;;;;4992865;28;20083;-68
2022/03/18 10:00:58;;;;;;;27.50;4.30;;;;;;;;;;4991501;28;20120;-68
2022/03/18 10:03:36;;;;;;;26.13;5.28;;;;;;;;;;4989302;28;20050;-68
2022/03/18 10:06:04;;;;;;;21.83;3.92;;;;;;;;;;4990958;28;20508;-68
2022/03/18 10:08:48;;;;;;;30.80;4.43;;;;;;;;;;4989184;28;20417;-68
2022/03/18 10:11:16;;;;;;;20.83;4.20;;;;;;;;;;4992529;28;20061;-68
2022/03/18 10:13:53;;;;;;;27.15;5.40;;;;;;;;;;4989423;28;20046;-68
2022/03/18 10:16:31;;;;;;;23.65;4.18;;;;;;;;;;4992200;28;20503;-68
2022/03/18 10:19:01;;;;;;;24.73;4.38;;;;;;;;;;4991299;28;20137;-68
2022/03/18 10:21:28;;;;;;;24.95;4.60;;;;;;;;;;4992374;28;20065;-68
2022/03/18 10:24:08;;;;;;;19.70;4.47;;;;;;;;;;4993329;28;20693;-68
2022/03/18 10:26:37;;;;;;;18.17;4.38;;;;;;;;;;4989776;28;20046;-68
2022/03/18 10:29:04;;;;;;;22.92;4.70;;;;;;;;;;4991688;28;20054;-68
2022/03/18 10:31:32;;;;;;;28.38;4.65;;;;;;;;;;4995274;28;20053;-68
2022/03/18 10:37:07;;;;;;;30.65;5.13;;;;;;;;;;4990289;28;20044;-69
2022/03/18 10:39:35;;;;;;;25.90;3.92;;;;;;;;;;4993630;28;20073;-69
2022/03/18 10:42:05;;;;;;;22.73;3.80;;;;;;;;;;4995840;28;20523;-69
2022/03/18 10:44:44;;;;;;;22.20;4.20;;;;;;;;;;4989948;28;20556;-69
2022/03/18 10:47:26;;;;;;;23.80;4.75;;;;;;;;;;4992603;28;20192;-69
2022/03/18 10:49:55;;;;;;;27.48;4.65;;;;;;;;;;4991345;28;20096;-69
2022/03/18 10:52:24;;;;;;;19.83;4.22;;;;;;;;;;4995560;28;20058;-69
2022/03/18 10:54:54;;;;;;;26.65;4.22;;;;;;;;;;4993236;28;20084;-68
2022/03/18 10:57:21;;;;;;;21.50;4.05;;;;;;;;;;4991504;28;20041;-68
2022/03/18 10:59:48;;;;;;;19.00;4.10;;;;;;;;;;4989806;28;20057;-68
2022/03/18 11:02:17;;;;;;;21.80;4.57;;;;;;;;;;4988212;28;20105;-69
2022/03/18 11:04:45;;;;;;;25.30;5.32;;;;;;;;;;4985406;28;20046;-69
2022/03/18 11:07:34;;;;;;;22.27;4.50;;;;;;;;;;4988245;28;20053;-69
2022/03/18 11:12:48;;;;;;;23.67;4.28;;;;;;;;;;4984803;28;20058;-69
2022/03/18 11:15:17;;;;;;;20.75;3.83;;;;;;;;;;4986524;28;20054;-68
2022/03/18 11:17:44;;;;;;;27.38;5.43;;;;;;;;;;4985201;28;20050;-68
2022/03/18 11:20:12;;;;;;;20.35;4.07;;;;;;;;;;4985149;28;20053;-68
2022/03/18 11:22:41;;;;;;;22.05;4.45;;;;;;;;;;4987377;28;20086;-68
2022/03/18 11:25:10;;;;;;;29.58;4.88;;;;;;;;;;4988901;28;20451;-68
2022/03/18 11:27:39;;;;;;;25.92;5.00;;;;;;;;;;4986818;28;20077;-68
2022/03/18 11:30:18;;;;;;;18.40;3.83;;;;;;;;;;4988064;28;20538;-68
2022/03/18 11:32:46;;;;;;;32.88;5.25;;;;;;;;;;4985282;28;20073;-68
2022/03/18 11:35:13;;;;;;;23.60;4.93;;;;;;;;;;4987866;28;20052;-68
2022/03/18 11:38:02;;;;;;;23.23;4.10;;;;;;;;;;4986523;28;20746;-68
2022/03/18 11:40:30;;;;;;;21.65;4.32;;;;;;;;;;4987986;28;20045;-68
2022/03/18 11:42:57;;;;;;;23.83;4.57;;;;;;;;;;4984486;28;20054;-69
2022/03/18 11:45:33;;;;;;;23.50;5.00;;;;;;;;;;4987825;28;20058;-69
2022/03/18 11:48:00;;;;;;;28.90;4.80;;;;;;;;;;4985791;28;20076;-69
2022/03/18 11:50:39;;;;;;;20.98;4.40;;;;;;;;;;4987423;28;20058;-69
2022/03/18 11:53:08;;;;;;;21.42;5.20;;;;;;;;;;4987722;28;20057;-69
2022/03/18 11:55:35;;;;;;;26.15;3.97;;;;;;;;;;4986499;28;20479;-69
2022/03/18 11:58:02;;;;;;;16.38;3.70;;;;;;;;;;4987368;28;20045;-69
2022/03/18 12:00:43;;;;;;;20.38;4.07;;;;;;;;;;4987488;28;20057;-69
2022/03/18 12:03:21;;;;;;;22.20;4.78;;;;;;;;;;4988294;28;20495;-69
2022/03/18 12:05:56;;;;;;;19.23;3.90;;;;;;;;;;4986479;28;20042;-69
2022/03/18 12:08:42;;;;;;;23.83;4.53;;;;;;;;;;5004733;28;20057;-69
2022/03/18 12:14:02;;;;;;;25.38;5.25;;;;;;;;;;5128424;27;20839;-68
2022/03/18 12:16:30;;;;;;;22.75;4.57;;;;;;;;;;5112649;28;20493;-69
2022/03/18 12:19:01;;;;;;;23.27;4.60;;;;;;;;;;5112731;28;20059;-69
2022/03/18 12:21:36;;;;;;;21.48;4.43;;;;;;;;;;5113966;28;20062;-69
2022/03/18 12:24:04;;;;;;;24.55;4.22;;;;;;;;;;5109750;28;20059;-69
2022/03/18 12:26:31;;;;;;;19.10;4.03;;;;;;;;;;5113014;28;20556;-69
2022/03/18 12:28:58;;;;;;;17.60;4.30;;;;;;;;;;5110173;28;20048;-69
2022/03/18 12:31:27;;;;;;;19.63;4.45;;;;;;;;;;5110201;28;20051;-69
2022/03/18 12:33:58;;;;;;;20.02;4.53;;;;;;;;;;5109457;28;20044;-69
2022/03/18 12:36:25;;;;;;;21.00;4.28;;;;;;;;;;5112820;28;20134;-69
2022/03/18 12:39:05;;;;;;;25.15;4.65;;;;;;;;;;5110593;28;20059;-69
2022/03/18 12:41:32;;;;;;;20.20;5.03;;;;;;;;;;5104277;28;20502;-69
2022/03/18 12:43:59;;;;;;;17.00;4.25;;;;;;;;;;5112944;28;20039;-69
2022/03/18 12:46:29;;;;;;;16.48;4.10;;;;;;;;;;5114138;28;20064;-69
2022/03/18 12:48:56;;;;;;;21.88;4.05;;;;;;;;;;5106232;28;20051;-69
2022/03/18 12:51:24;;;;;;;19.63;4.38;;;;;;;;;;5104251;28;20599;-69
2022/03/18 12:53:51;;;;;;;22.42;4.40;;;;;;;;;;5098529;28;20052;-69
2022/03/18 12:56:22;;;;;;;19.45;4.05;;;;;;;;;;5107508;28;20078;-69
2022/03/18 12:58:49;;;;;;;18.90;4.35;;;;;;;;;;5099618;28;20073;-69
2022/03/18 13:01:16;;;;;;;19.27;4.80;;;;;;;;;;5103099;28;20117;-69
2022/03/18 13:03:49;;;;;;;17.25;4.38;;;;;;;;;;5100611;28;20047;-69
2022/03/18 13:06:19;;;;;;;20.67;4.97;;;;;;;;;;5097942;28;20055;-69
2022/03/18 13:08:47;;;;;;;18.45;5.10;;;;;;;;;;5098576;28;20066;-69
2022/03/18 13:11:15;;;;;;;20.38;4.90;;;;;;;;;;5101829;28;20043;-69
2022/03/18 13:13:47;;;;;;;20.45;4.45;;;;;;;;;;5102882;28;20127;-69
2022/03/18 13:16:15;;;;;;;16.60;4.35;;;;;;;;;;5100241;28;20076;-69
2022/03/18 13:18:54;;;;;;;16.80;4.70;;;;;;;;;;5104372;28;20130;-69
2022/03/18 13:21:21;;;;;;;23.33;5.60;;;;;;;;;;5104473;28;20115;-69
2022/03/18 13:23:51;;;;;;;18.77;4.85;;;;;;;;;;5095770;28;20643;-69
2022/03/18 13:26:20;;;;;;;16.60;4.25;;;;;;;;;;5086740;28;20442;-69
2022/03/18 13:28:50;;;;;;;16.98;4.40;;;;;;;;;;5093229;28;20676;-69
2022/03/18 13:34:03;;;;;;;16.25;4.28;;;;;;;;;;5082372;28;20089;-69
2022/03/18 13:36:31;;;;;;;22.05;5.10;;;;;;;;;;5092443;28;20039;-69
2022/03/18 13:38:59;;;;;;;18.73;5.00;;;;;;;;;;5090913;28;20140;-69
2022/03/18 13:41:28;;;;;;;20.83;4.53;;;;;;;;;;5082337;28;20048;-69
2022/03/18 13:43:56;;;;;;;22.33;5.22;;;;;;;;;;5083925;28;20059;-69
2022/03/18 13:46:27;;;;;;;22.23;5.00;;;;;;;;;;5092056;28;20104;-69
2022/03/18 13:48:57;;;;;;;21.05;5.25;;;;;;;;;;5109499;27;20048;-69
2022/03/18 13:51:33;;;;;;;21.55;5.05;;;;;;;;;;5095679;28;20070;-69
2022/03/18 13:54:08;;;;;;;18.08;4.90;;;;;;;;;;5089759;28;20079;-69
2022/03/18 13:56:35;;;;;;;22.95;5.38;;;;;;;;;;5091310;28;20171;-69
2022/03/18 13:59:10;;;;;;;17.48;5.13;;;;;;;;;;5086700;28;20056;-69
2022/03/18 14:01:37;;;;;;;17.50;4.55;;;;;;;;;;5082758;28;20449;-69
2022/03/18 14:04:05;;;;;;;16.00;4.30;;;;;;;;;;5093622;28;20051;-70
2022/03/18 14:06:50;;;;;;;24.83;5.68;;;;;;;;;;5093503;28;20490;-70
2022/03/18 14:09:17;;;;;;;17.85;4.93;;;;;;;;;;5074643;28;20056;-70
2022/03/18 14:14:30;;;;;;;20.50;4.53;;;;;;;;;;5106365;27;20060;-70
2022/03/18 14:17:07;;;;;;;22.00;5.70;;;;;;;;;;5085947;28;20402;-70
2022/03/18 14:19:48;;;;;;;18.80;4.75;;;;;;;;;;5080958;28;20052;-70
2022/03/18 14:22:37;;;;;;;21.67;5.60;;;;;;;;;;5090363;28;20056;-70
2022/03/18 14:25:06;;;;;;;19.90;4.40;;;;;;;;;;5080735;28;20052;-70
2022/03/18 14:27:34;;;;;;;80.40;6.85;;;;;;;;;;5081269;28;20196;-70
2022/03/18 14:30:09;;;;;;;17.45;4.80;;;;;;;;;;5088831;28;20407;-69
2022/03/18 14:32:36;;;;;;;17.15;4.70;;;;;;;;;;5087678;28;20407;-69
2022/03/18 14:35:04;;;;;;;24.35;5.63;;;;;;;;;;5085421;28;20048;-69
2022/03/18 14:37:32;;;;;;;16.67;4.68;;;;;;;;;;5086722;28;20054;-70
2022/03/18 14:40:00;;;;;;;17.45;4.90;;;;;;;;;;5088354;28;20135;-70
2022/03/18 14:42:28;;;;;;;19.70;5.05;;;;;;;;;;5091923;28;20750;-70
2022/03/18 14:44:57;;;;;;;19.98;4.85;;;;;;;;;;5080394;28;20546;-70
2022/03/18 14:47:24;;;;;;;21.02;5.22;;;;;;;;;;5093621;28;20066;-70
2022/03/18 14:49:51;;;;;;;21.55;5.07;;;;;;;;;;5084575;28;20465;-70
2022/03/18 14:52:19;;;;;;;19.30;5.10;;;;;;;;;;5084076;28;20047;-70
2022/03/18 14:57:33;;;;;;;14.85;4.40;;;;;;;;;;5107177;27;20178;-69
2022/03/18 15:00:00;;;;;;;19.10;4.97;;;;;;;;;;5075988;28;20090;-73
2022/03/18 15:02:27;;;;;;;18.45;4.50;;;;;;;;;;5078692;28;20718;-73
2022/03/18 15:04:55;;;;;;;18.77;5.25;;;;;;;;;;5074840;28;20126;-73
2022/03/18 15:07:22;;;;;;;21.65;4.97;;;;;;;;;;5077134;28;20052;-73